Capitol Logistics 2121

Operating for AJT



KIAH
George Bush Intcntl/Houston Airport
Houston, Texas
KCVG
Cincinnati/Northern Kentucky International Airport
Covington, Kentucky

Activity Log

Date Flight Route Aircraft Duration
No Flights Yet

Route Details

Aircraft Information
Primary: Boeing 767-300BDSF
Backup: Airbus A300-600F
Route Data
Distance: 758nm
Duration: 2h 02m
Recm'd Route: CHCLL5 IIU TIIDE UJM JODOX DHART PLANB SKNRD4
Origin Wx: KIAH 020353Z 18008KT 10SM FEW250 30/24 A3000 RMK AO2 SLP158 T03000239
Dest. Wx: KCVG 020352Z 34008KT 10SM CLR 19/12 A3007 RMK AO2 SLP173 T01940122
Notes: